createdAt,value
2023-01-07T00:00:32.100Z,0
2023-01-07T00:01:32.071Z,0
2023-01-07T00:02:32.074Z,0
2023-01-07T00:03:32.139Z,0
2023-01-07T00:04:32.049Z,0
2023-01-07T00:05:32.062Z,0
2023-01-07T00:06:32.066Z,0
2023-01-07T00:07:32.083Z,0
2023-01-07T00:08:32.065Z,0
2023-01-07T00:09:32.059Z,0
2023-01-07T00:10:32.032Z,0
2023-01-07T00:11:32.076Z,0
2023-01-07T00:12:32.045Z,0
2023-01-07T00:13:32.069Z,0
2023-01-07T00:14:32.057Z,0
2023-01-07T00:15:32.081Z,0
2023-01-07T00:16:32.065Z,0
2023-01-07T00:17:32.107Z,0
2023-01-07T00:18:32.076Z,0
2023-01-07T00:19:32.102Z,0
2023-01-07T00:20:32.053Z,0
2023-01-07T00:21:32.047Z,0
2023-01-07T00:22:32.091Z,0
2023-01-07T00:23:32.059Z,0
2023-01-07T00:24:32.064Z,0
2023-01-07T00:25:32.064Z,0
2023-01-07T00:26:32.064Z,0
2023-01-07T00:27:32.093Z,0
2023-01-07T00:28:32.041Z,0
2023-01-07T00:29:32.059Z,0
2023-01-07T00:30:32.067Z,0
2023-01-07T00:31:32.226Z,0
2023-01-07T00:32:32.088Z,0
2023-01-07T00:33:32.054Z,0
2023-01-07T00:34:32.165Z,0
2023-01-07T00:35:32.092Z,0
2023-01-07T00:36:32.107Z,0
2023-01-07T00:37:32.092Z,0
2023-01-07T00:38:32.045Z,0
2023-01-07T00:39:32.075Z,0
2023-01-07T00:40:32.039Z,0
2023-01-07T00:41:32.065Z,0
2023-01-07T00:42:32.045Z,0
2023-01-07T00:43:32.091Z,0
2023-01-07T00:44:32.046Z,0
2023-01-07T00:45:32.102Z,0
2023-01-07T00:46:32.128Z,0
2023-01-07T00:47:32.068Z,0
2023-01-07T00:48:32.079Z,0
2023-01-07T00:49:32.069Z,0
2023-01-07T00:50:32.048Z,0
2023-01-07T00:51:32.139Z,0
2023-01-07T00:52:32.081Z,0
2023-01-07T00:53:32.078Z,0
2023-01-07T00:54:32.073Z,0
2023-01-07T00:55:32.075Z,0
2023-01-07T00:56:32.072Z,0
2023-01-07T00:57:32.084Z,0
2023-01-07T00:58:32.036Z,0
2023-01-07T00:59:32.103Z,0
2023-01-07T01:00:32.165Z,0
2023-01-07T01:01:32.222Z,0
2023-01-07T01:02:32.144Z,0
2023-01-07T01:03:32.091Z,0
2023-01-07T01:04:32.080Z,0
2023-01-07T01:05:32.121Z,0
2023-01-07T01:06:32.058Z,0
2023-01-07T01:07:32.082Z,0
2023-01-07T01:08:32.106Z,0
2023-01-07T01:09:32.068Z,0
2023-01-07T01:10:32.114Z,0
2023-01-07T01:11:32.039Z,0
2023-01-07T01:12:32.045Z,0
2023-01-07T01:13:32.074Z,0
2023-01-07T01:14:32.056Z,0
2023-01-07T01:15:32.061Z,0
2023-01-07T01:16:32.071Z,0
2023-01-07T01:17:32.059Z,0
2023-01-07T01:18:32.116Z,0
2023-01-07T01:19:32.037Z,0
2023-01-07T01:20:32.035Z,0
2023-01-07T01:21:32.081Z,0
2023-01-07T01:22:32.043Z,0
2023-01-07T01:23:32.138Z,0
2023-01-07T01:24:32.030Z,0
2023-01-07T01:25:32.078Z,0
2023-01-07T01:26:32.063Z,0
2023-01-07T01:27:32.068Z,0
2023-01-07T01:28:32.060Z,0
2023-01-07T01:29:32.055Z,0
2023-01-07T01:30:32.049Z,0
2023-01-07T01:31:32.122Z,0
2023-01-07T01:32:32.059Z,0
2023-01-07T01:33:32.080Z,0
2023-01-07T01:34:32.041Z,0
2023-01-07T01:35:32.031Z,0
2023-01-07T01:36:32.042Z,0
2023-01-07T01:37:32.083Z,0
2023-01-07T01:38:32.056Z,0
2023-01-07T01:39:32.032Z,0
2023-01-07T01:40:32.176Z,0
2023-01-07T01:41:32.285Z,0
2023-01-07T01:42:32.190Z,0
2023-01-07T01:43:32.292Z,0
2023-01-07T01:44:32.221Z,0
2023-01-07T01:45:32.128Z,0
2023-01-07T01:46:32.214Z,0
2023-01-07T01:47:32.243Z,0
2023-01-07T01:48:32.170Z,0
2023-01-07T01:49:32.130Z,0
2023-01-07T01:50:32.228Z,0
2023-01-07T01:51:32.136Z,0
2023-01-07T01:52:32.246Z,0
2023-01-07T01:53:32.211Z,0
2023-01-07T01:54:32.047Z,0
2023-01-07T01:55:32.136Z,0
2023-01-07T01:56:32.059Z,0
2023-01-07T01:57:32.067Z,0
2023-01-07T01:58:32.039Z,0
2023-01-07T01:59:32.029Z,0
2023-01-07T02:00:32.143Z,0
2023-01-07T02:01:32.144Z,0
2023-01-07T02:02:32.079Z,0
2023-01-07T02:03:32.025Z,0
2023-01-07T02:04:32.055Z,0
2023-01-07T02:05:32.054Z,0
2023-01-07T02:06:32.039Z,0
2023-01-07T02:07:32.089Z,0
2023-01-07T02:08:32.064Z,0
2023-01-07T02:09:32.039Z,0
2023-01-07T02:10:32.037Z,0
2023-01-07T02:11:32.018Z,0
2023-01-07T02:12:32.068Z,0
2023-01-07T02:13:32.058Z,0
2023-01-07T02:14:32.099Z,0
2023-01-07T02:15:32.037Z,0
2023-01-07T02:16:32.145Z,0
2023-01-07T02:17:32.046Z,0
2023-01-07T02:18:32.081Z,0
2023-01-07T02:19:32.045Z,0
2023-01-07T02:20:32.074Z,0
2023-01-07T02:21:32.036Z,0
2023-01-07T02:22:32.022Z,0
2023-01-07T02:23:32.027Z,0
2023-01-07T02:24:32.068Z,0
2023-01-07T02:25:32.047Z,0
2023-01-07T02:26:32.029Z,0
2023-01-07T02:27:32.066Z,0
2023-01-07T02:28:32.059Z,0
2023-01-07T02:29:32.061Z,0
2023-01-07T02:30:32.025Z,0
2023-01-07T02:31:32.194Z,0
2023-01-07T02:32:32.076Z,0
2023-01-07T02:33:32.188Z,0
2023-01-07T02:34:32.020Z,0
2023-01-07T02:35:32.035Z,0
2023-01-07T02:36:32.079Z,0
2023-01-07T02:37:32.040Z,0
2023-01-07T02:38:32.061Z,0
2023-01-07T02:39:32.042Z,0
2023-01-07T02:40:32.049Z,0
2023-01-07T02:41:32.056Z,0
2023-01-07T02:42:32.098Z,0
2023-01-07T02:43:31.994Z,0
2023-01-07T02:44:32.133Z,0
2023-01-07T02:45:32.075Z,0
2023-01-07T02:46:32.099Z,0
2023-01-07T02:47:32.015Z,0
2023-01-07T02:48:32.054Z,0
2023-01-07T02:49:32.029Z,0
2023-01-07T02:50:32.120Z,0
2023-01-07T02:51:32.065Z,0
2023-01-07T02:52:32.079Z,0
2023-01-07T02:53:32.044Z,0
2023-01-07T02:54:32.063Z,0
2023-01-07T02:55:32.034Z,0
2023-01-07T02:56:32.066Z,0
2023-01-07T02:57:32.183Z,0
2023-01-07T02:58:32.063Z,0
2023-01-07T02:59:32.044Z,0
2023-01-07T03:00:32.081Z,0
2023-01-07T03:01:32.163Z,0
2023-01-07T03:02:32.060Z,0
2023-01-07T03:03:32.031Z,0
2023-01-07T03:04:32.058Z,0
2023-01-07T03:05:32.089Z,0
2023-01-07T03:06:32.024Z,0
2023-01-07T03:07:32.019Z,0
2023-01-07T03:08:32.041Z,0
2023-01-07T03:09:32.136Z,0
2023-01-07T03:10:32.207Z,0
2023-01-07T03:11:32.091Z,0
2023-01-07T03:12:32.125Z,0
2023-01-07T03:13:32.054Z,0
2023-01-07T03:14:32.148Z,0
2023-01-07T03:15:32.043Z,0
2023-01-07T03:16:32.170Z,0
2023-01-07T03:17:32.097Z,0
2023-01-07T03:18:32.092Z,0
2023-01-07T03:19:32.047Z,0
2023-01-07T03:20:32.174Z,0
2023-01-07T03:21:32.076Z,0
2023-01-07T03:22:32.063Z,0
2023-01-07T03:23:32.158Z,0
2023-01-07T03:24:32.065Z,0
2023-01-07T03:25:32.139Z,0
2023-01-07T03:26:32.053Z,0
2023-01-07T03:27:32.165Z,0
2023-01-07T03:28:32.102Z,0
2023-01-07T03:29:32.019Z,0
2023-01-07T03:30:32.052Z,0
2023-01-07T03:31:32.049Z,0
2023-01-07T03:32:32.075Z,0
2023-01-07T03:33:32.046Z,0
2023-01-07T03:34:32.053Z,0
2023-01-07T03:35:32.245Z,0
2023-01-07T03:36:32.131Z,0
2023-01-07T03:37:32.179Z,0
2023-01-07T03:38:32.153Z,0
2023-01-07T03:39:32.065Z,0
2023-01-07T03:40:32.186Z,0
2023-01-07T03:41:32.101Z,0
2023-01-07T03:42:32.100Z,0
2023-01-07T03:43:32.133Z,0
2023-01-07T03:44:32.128Z,0
2023-01-07T03:45:32.266Z,0
2023-01-07T03:46:32.091Z,0
2023-01-07T03:47:32.057Z,0
2023-01-07T03:48:32.032Z,0
2023-01-07T03:49:32.060Z,0
2023-01-07T03:50:32.074Z,0
2023-01-07T03:51:32.040Z,0
2023-01-07T03:52:32.049Z,0
2023-01-07T03:53:32.019Z,0
2023-01-07T03:54:32.043Z,0
2023-01-07T03:55:32.024Z,0
2023-01-07T03:56:32.045Z,0
2023-01-07T03:57:32.024Z,0
2023-01-07T03:58:32.039Z,0
2023-01-07T03:59:32.015Z,0
2023-01-07T04:00:32.059Z,0
2023-01-07T04:01:32.154Z,0
2023-01-07T04:02:32.058Z,0
2023-01-07T04:03:31.990Z,0
2023-01-07T04:04:32.074Z,0
2023-01-07T04:05:32.103Z,0
2023-01-07T04:06:32.074Z,0
2023-01-07T04:07:32.020Z,0
2023-01-07T04:08:32.040Z,0
2023-01-07T04:09:32.010Z,0
2023-01-07T04:10:32.060Z,0
2023-01-07T04:11:32.080Z,0
2023-01-07T04:12:32.065Z,0
2023-01-07T04:13:32.014Z,0
2023-01-07T04:14:32.042Z,0
2023-01-07T04:15:32.086Z,0
2023-01-07T04:16:32.094Z,0
2023-01-07T04:17:32.030Z,0
2023-01-07T04:18:32.045Z,0
2023-01-07T04:19:32.055Z,0
2023-01-07T04:20:32.019Z,0
2023-01-07T04:21:32.034Z,0
2023-01-07T04:22:32.067Z,0
2023-01-07T04:23:32.019Z,0
2023-01-07T04:24:32.044Z,0
2023-01-07T04:25:32.036Z,0
2023-01-07T04:26:32.127Z,0
2023-01-07T04:27:32.020Z,0
2023-01-07T04:28:32.027Z,0
2023-01-07T04:29:32.048Z,0
2023-01-07T04:30:32.064Z,0
2023-01-07T04:31:32.025Z,0
2023-01-07T04:32:32.118Z,0
2023-01-07T04:33:32.026Z,0
2023-01-07T04:34:32.020Z,0
2023-01-07T04:35:32.022Z,0
2023-01-07T04:36:32.063Z,0
2023-01-07T04:37:32.044Z,0
2023-01-07T04:38:32.112Z,0
2023-01-07T04:39:32.026Z,0
2023-01-07T04:40:32.062Z,0
2023-01-07T04:41:32.121Z,0
2023-01-07T04:42:32.040Z,0
2023-01-07T04:43:32.022Z,0
2023-01-07T04:44:32.034Z,0
2023-01-07T04:45:32.053Z,0
2023-01-07T04:46:32.120Z,0
2023-01-07T04:47:32.201Z,0
2023-01-07T04:48:32.049Z,0
2023-01-07T04:49:32.042Z,0
2023-01-07T04:50:32.028Z,0
2023-01-07T04:51:32.008Z,0
2023-01-07T04:52:32.072Z,0
2023-01-07T04:53:32.017Z,0
2023-01-07T04:54:32.036Z,0
2023-01-07T04:55:32.030Z,0
2023-01-07T04:56:32.036Z,0
2023-01-07T04:57:32.028Z,0
2023-01-07T04:58:32.016Z,0
2023-01-07T04:59:31.984Z,0
2023-01-07T05:00:32.041Z,0
2023-01-07T05:01:32.187Z,0
2023-01-07T05:02:32.020Z,0
2023-01-07T05:03:32.052Z,0
2023-01-07T05:04:32.079Z,0
2023-01-07T05:05:32.008Z,0
2023-01-07T05:06:32.036Z,0
2023-01-07T05:07:32.018Z,0
2023-01-07T05:08:32.066Z,0
2023-01-07T05:09:32.030Z,0
2023-01-07T05:10:32.034Z,0
2023-01-07T05:11:32.034Z,0
2023-01-07T05:12:32.055Z,0
2023-01-07T05:13:32.059Z,0
2023-01-07T05:14:32.044Z,0
2023-01-07T05:15:32.028Z,0
2023-01-07T05:16:32.114Z,0
2023-01-07T05:17:32.005Z,0
2023-01-07T05:18:32.007Z,0
2023-01-07T05:19:32.052Z,0
2023-01-07T05:20:32.060Z,0
2023-01-07T05:21:32.016Z,0
2023-01-07T05:22:32.027Z,0
2023-01-07T05:23:31.999Z,0
2023-01-07T05:24:32.101Z,0
2023-01-07T05:25:32.100Z,0
2023-01-07T05:26:32.013Z,0
2023-01-07T05:27:31.993Z,0
2023-01-07T05:28:32.095Z,0
2023-01-07T05:29:32.080Z,0
2023-01-07T05:30:32.063Z,0
2023-01-07T05:31:32.016Z,0
2023-01-07T05:32:32.030Z,0
2023-01-07T05:33:32.036Z,0
2023-01-07T05:34:32.133Z,0
2023-01-07T05:35:32.004Z,0
2023-01-07T05:36:32.015Z,0
2023-01-07T05:37:32.015Z,0
2023-01-07T05:38:32.031Z,0
2023-01-07T05:39:32.002Z,0
2023-01-07T05:40:32.069Z,0
2023-01-07T05:41:32.031Z,0
2023-01-07T05:42:32.014Z,0
2023-01-07T05:43:32.049Z,0
2023-01-07T05:44:32.037Z,0
2023-01-07T05:45:32.025Z,0
2023-01-07T05:46:32.128Z,0
2023-01-07T05:47:32.063Z,0
2023-01-07T05:48:32.097Z,0
2023-01-07T05:49:32.017Z,0
2023-01-07T05:50:32.053Z,0
2023-01-07T05:51:32.058Z,0
2023-01-07T05:52:32.006Z,0
2023-01-07T05:53:32.005Z,0
2023-01-07T05:54:32.031Z,0
2023-01-07T05:55:32.000Z,0
2023-01-07T05:56:32.053Z,0
2023-01-07T05:57:32.021Z,0
2023-01-07T05:58:32.055Z,0
2023-01-07T05:59:32.087Z,0
2023-01-07T06:00:32.037Z,0
2023-01-07T06:01:32.284Z,0
2023-01-07T06:02:32.065Z,0
2023-01-07T06:03:32.110Z,0
2023-01-07T06:04:32.183Z,0
2023-01-07T06:05:31.989Z,0
2023-01-07T06:06:32.057Z,0
2023-01-07T06:07:32.012Z,0
2023-01-07T06:08:32.061Z,0
2023-01-07T06:09:32.020Z,0
2023-01-07T06:10:32.036Z,0
2023-01-07T06:11:32.041Z,0
2023-01-07T06:12:32.044Z,0
2023-01-07T06:13:32.001Z,0
2023-01-07T06:14:32.043Z,0
2023-01-07T06:15:32.054Z,0
2023-01-07T06:16:32.035Z,0
2023-01-07T06:17:32.055Z,0
2023-01-07T06:18:32.053Z,0
2023-01-07T06:19:32.018Z,0
2023-01-07T06:20:32.079Z,0
2023-01-07T06:21:32.069Z,0
2023-01-07T06:22:32.055Z,0
2023-01-07T06:23:32.023Z,0
2023-01-07T06:24:32.090Z,0
2023-01-07T06:25:32.008Z,0
2023-01-07T06:26:32.042Z,0
2023-01-07T06:27:32.006Z,0
2023-01-07T06:28:32.054Z,0
2023-01-07T06:29:32.024Z,0
2023-01-07T06:30:32.065Z,0
2023-01-07T06:31:32.158Z,0
2023-01-07T06:32:32.013Z,0
2023-01-07T06:33:33.381Z,0
2023-01-07T06:34:32.052Z,0
2023-01-07T06:35:31.998Z,0
2023-01-07T06:36:32.005Z,0
2023-01-07T06:37:31.986Z,0
2023-01-07T06:38:32.030Z,0
2023-01-07T06:39:32.036Z,0
2023-01-07T06:40:32.046Z,0
2023-01-07T06:41:32.027Z,0
2023-01-07T06:42:32.111Z,0
2023-01-07T06:43:32.034Z,0
2023-01-07T06:44:32.035Z,0
2023-01-07T06:45:32.051Z,0
2023-01-07T06:46:32.109Z,0
2023-01-07T06:47:32.009Z,0
2023-01-07T06:48:32.018Z,0
2023-01-07T06:49:32.031Z,0
2023-01-07T06:50:32.075Z,0
2023-01-07T06:51:32.037Z,0
2023-01-07T06:52:32.107Z,0
2023-01-07T06:53:32.034Z,0
2023-01-07T06:54:32.052Z,0
2023-01-07T06:55:32.022Z,0
2023-01-07T06:56:32.004Z,0
2023-01-07T06:57:32.028Z,0
2023-01-07T06:58:32.077Z,0
2023-01-07T06:59:32.048Z,0
2023-01-07T07:00:32.055Z,0
2023-01-07T07:01:32.201Z,0
2023-01-07T07:02:32.246Z,0
2023-01-07T07:03:32.161Z,0
2023-01-07T07:04:32.029Z,0
2023-01-07T07:05:32.034Z,0
2023-01-07T07:06:32.043Z,0
2023-01-07T07:07:32.042Z,0
2023-01-07T07:08:32.124Z,0
2023-01-07T07:09:32.002Z,0
2023-01-07T07:10:32.005Z,0
2023-01-07T07:11:32.202Z,0
2023-01-07T07:12:31.985Z,0
2023-01-07T07:13:31.999Z,0
2023-01-07T07:14:32.069Z,0
2023-01-07T07:15:32.027Z,0
2023-01-07T07:16:32.759Z,0
2023-01-07T07:17:32.003Z,0
2023-01-07T07:18:32.042Z,0
2023-01-07T07:19:32.003Z,0
2023-01-07T07:20:32.012Z,0
2023-01-07T07:21:32.015Z,0
2023-01-07T07:22:32.037Z,0
2023-01-07T07:23:32.040Z,0
2023-01-07T07:24:31.989Z,0
2023-01-07T07:25:32.009Z,0
2023-01-07T07:26:32.029Z,0
2023-01-07T07:27:32.030Z,0
2023-01-07T07:28:32.023Z,0
2023-01-07T07:29:32.016Z,0
2023-01-07T07:30:47.264Z,0
2023-01-07T07:31:32.244Z,0
2023-01-07T07:32:32.000Z,0
2023-01-07T07:33:32.000Z,0
2023-01-07T07:34:32.065Z,0
2023-01-07T07:35:32.104Z,0
2023-01-07T07:36:32.114Z,0
2023-01-07T07:37:32.018Z,0
2023-01-07T07:38:32.048Z,0
2023-01-07T07:39:32.098Z,0
2023-01-07T07:40:32.013Z,0
2023-01-07T07:41:32.012Z,0
2023-01-07T07:42:32.046Z,0
2023-01-07T07:43:32.078Z,0
2023-01-07T07:44:32.027Z,0
2023-01-07T07:45:32.014Z,0
2023-01-07T07:46:32.119Z,0
2023-01-07T07:47:31.986Z,0
2023-01-07T07:48:31.996Z,0
2023-01-07T07:49:32.043Z,0
2023-01-07T07:50:32.066Z,0
2023-01-07T07:51:32.078Z,0
2023-01-07T07:52:32.028Z,0
2023-01-07T07:53:32.039Z,0
2023-01-07T07:54:32.051Z,0
2023-01-07T07:55:32.022Z,0
2023-01-07T07:56:32.017Z,0
2023-01-07T07:57:32.042Z,0
2023-01-07T07:58:32.056Z,0
2023-01-07T07:59:32.000Z,0
2023-01-07T08:00:32.022Z,0
2023-01-07T08:01:32.156Z,0
2023-01-07T08:02:32.061Z,0
2023-01-07T08:03:32.115Z,0
2023-01-07T08:04:31.999Z,0
2023-01-07T08:05:32.162Z,0
2023-01-07T08:06:31.999Z,0
2023-01-07T08:07:33.330Z,0
2023-01-07T08:08:32.010Z,0
2023-01-07T08:09:32.030Z,0
2023-01-07T08:10:32.131Z,0.36
2023-01-07T08:11:32.131Z,0.36
2023-01-07T08:12:31.984Z,0
2023-01-07T08:13:32.023Z,0.85
2023-01-07T08:14:32.036Z,0.85
2023-01-07T08:15:32.027Z,0.85
2023-01-07T08:16:32.096Z,2.08
2023-01-07T08:17:32.008Z,2.57
2023-01-07T08:18:32.049Z,2.94
2023-01-07T08:19:31.994Z,2.57
2023-01-07T08:20:32.005Z,3.79
2023-01-07T08:21:32.016Z,2.94
2023-01-07T08:22:32.022Z,3.79
2023-01-07T08:23:32.010Z,3.43
2023-01-07T08:24:31.993Z,3.43
2023-01-07T08:25:32.008Z,4.28
2023-01-07T08:26:32.025Z,4.28
2023-01-07T08:27:31.986Z,5.14
2023-01-07T08:28:32.026Z,4.28
2023-01-07T08:29:32.020Z,5.99
2023-01-07T08:30:32.019Z,4.77
2023-01-07T08:31:32.039Z,4.28
2023-01-07T08:32:32.023Z,4.28
2023-01-07T08:33:32.008Z,5.14
2023-01-07T08:34:32.053Z,5.14
2023-01-07T08:35:32.001Z,5.63
2023-01-07T08:36:31.974Z,5.63
2023-01-07T08:37:32.007Z,5.99
2023-01-07T08:38:32.041Z,6.85
2023-01-07T08:39:32.027Z,6.85
2023-01-07T08:40:32.041Z,7.7
2023-01-07T08:41:32.110Z,6.85
2023-01-07T08:42:32.073Z,6.85
2023-01-07T08:43:31.996Z,7.34
2023-01-07T08:44:32.004Z,7.7
2023-01-07T08:45:32.029Z,7.7
2023-01-07T08:46:32.058Z,7.34
2023-01-07T08:47:32.039Z,6.85
2023-01-07T08:48:32.019Z,7.34
2023-01-07T08:49:31.988Z,5.99
2023-01-07T08:50:32.008Z,7.34
2023-01-07T08:51:32.034Z,7.34
2023-01-07T08:52:32.011Z,8.56
2023-01-07T08:53:31.984Z,8.19
2023-01-07T08:54:32.002Z,8.19
2023-01-07T08:55:32.035Z,8.56
2023-01-07T08:56:32.019Z,8.56
2023-01-07T08:57:32.019Z,8.19
2023-01-07T08:58:32.003Z,8.19
2023-01-07T08:59:32.031Z,9.91
2023-01-07T09:00:32.107Z,9.91
2023-01-07T09:01:32.118Z,8.19
2023-01-07T09:02:32.069Z,8.56
2023-01-07T09:03:32.021Z,10.39
2023-01-07T09:04:31.989Z,10.77
2023-01-07T09:05:33.933Z,10.77
2023-01-07T09:06:32.011Z,11.25
2023-01-07T09:07:32.018Z,11.62
2023-01-07T09:08:31.998Z,10.77
2023-01-07T09:09:32.026Z,10.77
2023-01-07T09:10:32.011Z,10.39
2023-01-07T09:11:32.104Z,10.39
2023-01-07T09:12:32.013Z,10.39
2023-01-07T09:13:32.009Z,11.62
2023-01-07T09:14:32.057Z,10.77
2023-01-07T09:15:32.027Z,12.48
2023-01-07T09:16:32.059Z,11.25
2023-01-07T09:17:32.016Z,12.48
2023-01-07T09:18:31.973Z,12.97
2023-01-07T09:19:32.005Z,11.25
2023-01-07T09:20:31.999Z,9.91
2023-01-07T09:21:32.036Z,10.39
2023-01-07T09:22:31.984Z,10.77
2023-01-07T09:23:32.026Z,11.25
2023-01-07T09:24:32.005Z,13.82
2023-01-07T09:25:32.007Z,15.53
2023-01-07T09:26:32.008Z,12.97
2023-01-07T09:27:31.998Z,12.97
2023-01-07T09:28:31.990Z,10.77
2023-01-07T09:29:31.998Z,10.77
2023-01-07T09:30:31.993Z,11.25
2023-01-07T09:31:32.185Z,12.11
2023-01-07T09:32:32.018Z,14.68
2023-01-07T09:33:32.026Z,11.25
2023-01-07T09:34:31.975Z,11.62
2023-01-07T09:35:32.043Z,12.11
2023-01-07T09:36:31.995Z,9.91
2023-01-07T09:37:31.997Z,10.77
2023-01-07T09:38:32.009Z,10.77
2023-01-07T09:39:32.058Z,12.48
2023-01-07T09:40:32.060Z,14.31
2023-01-07T09:41:32.000Z,12.48
2023-01-07T09:42:33.896Z,10.77
2023-01-07T09:43:59.481Z,10.77
2023-01-07T09:44:32.070Z,12.97
2023-01-07T09:45:32.118Z,12.97
2023-01-07T09:46:32.151Z,14.31
2023-01-07T09:47:32.005Z,14.31
2023-01-07T09:48:32.141Z,14.31
2023-01-07T09:49:32.027Z,14.31
2023-01-07T09:50:31.987Z,14.31
2023-01-07T09:51:32.026Z,14.31
2023-01-07T09:52:31.995Z,14.68
2023-01-07T09:53:32.037Z,16.02
2023-01-07T09:54:32.015Z,15.53
2023-01-07T09:55:31.976Z,15.17
2023-01-07T09:56:31.987Z,16.88
2023-01-07T09:57:32.000Z,15.17
2023-01-07T09:58:32.009Z,14.31
2023-01-07T09:59:31.995Z,15.17
2023-01-07T10:00:31.999Z,16.02
2023-01-07T10:01:32.089Z,16.02
2023-01-07T10:02:32.070Z,17.25
2023-01-07T10:03:32.067Z,16.88
2023-01-07T10:04:32.055Z,15.17
2023-01-07T10:05:32.077Z,16.02
2023-01-07T10:06:43.158Z,17.25
2023-01-07T10:07:31.983Z,15.53
2023-01-07T10:08:32.533Z,15.53
2023-01-07T10:09:32.022Z,16.39
2023-01-07T10:10:32.069Z,15.53
2023-01-07T10:11:31.975Z,15.17
2023-01-07T10:12:32.026Z,12.48
2023-01-07T10:13:32.002Z,12.97
2023-01-07T10:14:31.978Z,15.17
2023-01-07T10:15:31.965Z,14.68
2023-01-07T10:16:32.085Z,13.33
2023-01-07T10:17:32.035Z,15.17
2023-01-07T10:18:32.026Z,15.17
2023-01-07T10:19:31.991Z,13.33
2023-01-07T10:20:32.017Z,12.11
2023-01-07T10:21:32.007Z,14.31
2023-01-07T10:22:32.005Z,12.48
2023-01-07T10:23:31.990Z,14.31
2023-01-07T10:24:31.997Z,13.82
2023-01-07T10:25:32.019Z,12.97
2023-01-07T10:26:32.015Z,12.11
2023-01-07T10:27:32.000Z,11.25
2023-01-07T10:28:32.015Z,11.62
2023-01-07T10:29:32.047Z,12.11
2023-01-07T10:30:32.003Z,11.62
2023-01-07T10:31:32.041Z,11.25
2023-01-07T10:32:31.979Z,11.25
2023-01-07T10:33:32.019Z,12.48
2023-01-07T10:34:31.995Z,12.48
2023-01-07T10:35:31.983Z,12.97
2023-01-07T10:36:32.095Z,10.77
2023-01-07T10:37:32.068Z,10.39
2023-01-07T10:38:31.989Z,12.11
2023-01-07T10:39:31.999Z,12.11
2023-01-07T10:40:32.021Z,14.31
2023-01-07T10:41:32.035Z,14.68
2023-01-07T10:42:31.990Z,13.33
2023-01-07T10:43:31.987Z,15.53
2023-01-07T10:44:31.998Z,15.53
2023-01-07T10:45:32.020Z,13.33
2023-01-07T10:46:32.029Z,12.97
2023-01-07T10:47:31.997Z,13.82
2023-01-07T10:48:32.020Z,12.11
2023-01-07T10:49:31.997Z,12.48
2023-01-07T10:50:32.000Z,14.68
2023-01-07T10:51:32.000Z,13.82
2023-01-07T10:52:31.964Z,14.68
2023-01-07T10:53:31.987Z,12.97
2023-01-07T10:54:31.992Z,12.11
2023-01-07T10:55:32.033Z,11.25
2023-01-07T10:56:31.980Z,10.77
2023-01-07T10:57:32.004Z,10.77
2023-01-07T10:58:31.977Z,10.39
2023-01-07T10:59:31.985Z,10.39
2023-01-07T11:00:31.995Z,12.11
2023-01-07T11:01:32.105Z,9.91
2023-01-07T11:02:32.128Z,8.56
2023-01-07T11:03:32.021Z,9.54
2023-01-07T11:04:31.996Z,8.19
2023-01-07T11:05:31.993Z,6.85
2023-01-07T11:06:31.986Z,6.48
2023-01-07T11:07:32.004Z,5.63
2023-01-07T11:08:32.044Z,5.99
2023-01-07T11:09:31.977Z,6.85
2023-01-07T11:10:31.981Z,5.99
2023-01-07T11:11:32.038Z,5.63
2023-01-07T11:12:31.982Z,5.14
2023-01-07T11:13:32.007Z,5.63
2023-01-07T11:14:32.008Z,5.99
2023-01-07T11:15:32.001Z,6.48
2023-01-07T11:16:32.060Z,6.48
2023-01-07T11:17:31.980Z,6.48
2023-01-07T11:18:31.980Z,6.85
2023-01-07T11:19:31.980Z,7.7
2023-01-07T11:20:31.988Z,7.7
2023-01-07T11:21:42.468Z,7.34
2023-01-07T11:22:31.964Z,7.34
2023-01-07T11:23:32.102Z,9.05
2023-01-07T11:24:31.986Z,8.19
2023-01-07T11:25:31.961Z,8.56
2023-01-07T11:26:31.983Z,9.05
2023-01-07T11:27:32.042Z,8.56
2023-01-07T11:28:31.995Z,8.56
2023-01-07T11:29:31.948Z,9.54
2023-01-07T11:30:31.996Z,9.91
2023-01-07T11:31:32.056Z,11.25
2023-01-07T11:32:32.018Z,11.62
2023-01-07T11:34:01.735Z,10.77
2023-01-07T11:34:32.094Z,10.77
2023-01-07T11:35:32.069Z,11.25
2023-01-07T11:36:31.984Z,12.11
2023-01-07T11:37:31.972Z,14.31
2023-01-07T11:38:32.029Z,13.33
2023-01-07T11:39:32.031Z,11.62
2023-01-07T11:40:32.095Z,13.33
2023-01-07T11:41:31.989Z,12.97
2023-01-07T11:42:32.016Z,13.82
2023-01-07T11:43:31.996Z,14.68
2023-01-07T11:44:31.963Z,15.53
2023-01-07T11:45:32.101Z,13.82
2023-01-07T11:46:32.023Z,15.53
2023-01-07T11:47:31.972Z,15.53
2023-01-07T11:48:31.959Z,16.88
2023-01-07T11:49:31.985Z,16.88
2023-01-07T11:50:31.981Z,16.02
2023-01-07T11:51:32.008Z,15.17
2023-01-07T11:52:32.024Z,14.31
2023-01-07T11:53:32.037Z,16.39
2023-01-07T11:54:31.988Z,14.31
2023-01-07T11:55:31.989Z,16.02
2023-01-07T11:56:31.964Z,16.88
2023-01-07T11:57:32.027Z,15.17
2023-01-07T11:58:31.980Z,13.82
2023-01-07T11:59:31.978Z,15.53
2023-01-07T12:00:32.101Z,14.31
2023-01-07T12:01:32.096Z,13.33
2023-01-07T12:02:32.020Z,13.82
2023-01-07T12:03:32.087Z,10.77
2023-01-07T12:04:32.013Z,9.54
2023-01-07T12:05:32.015Z,10.39
2023-01-07T12:06:31.994Z,11.25
2023-01-07T12:07:31.975Z,10.77
2023-01-07T12:08:31.985Z,11.62
2023-01-07T12:09:31.996Z,11.62
2023-01-07T12:10:31.999Z,12.48
2023-01-07T12:11:31.982Z,10.77
2023-01-07T12:12:31.997Z,11.62
2023-01-07T12:13:32.028Z,12.11
2023-01-07T12:14:31.986Z,12.48
2023-01-07T12:15:31.983Z,12.48
2023-01-07T12:16:31.998Z,11.25
2023-01-07T12:17:32.011Z,10.77
2023-01-07T12:18:31.968Z,9.05
2023-01-07T12:19:32.029Z,8.19
2023-01-07T12:20:31.986Z,7.7
2023-01-07T12:21:32.078Z,6.85
2023-01-07T12:22:31.969Z,7.34
2023-01-07T12:23:32.092Z,5.99
2023-01-07T12:24:31.972Z,6.85
2023-01-07T12:25:33.620Z,6.48
2023-01-07T12:26:32.036Z,5.99
2023-01-07T12:27:32.044Z,5.99
2023-01-07T12:28:31.979Z,5.14
2023-01-07T12:29:32.031Z,5.63
2023-01-07T12:30:31.955Z,5.63
2023-01-07T12:31:32.020Z,4.77
2023-01-07T12:32:31.980Z,5.14
2023-01-07T12:33:31.999Z,4.28
2023-01-07T12:34:31.964Z,5.14
2023-01-07T12:35:31.998Z,3.79
2023-01-07T12:36:32.002Z,3.79
2023-01-07T12:37:31.996Z,4.77
2023-01-07T12:38:31.978Z,3.79
2023-01-07T12:39:32.059Z,3.79
2023-01-07T12:40:31.995Z,3.79
2023-01-07T12:41:31.998Z,2.94
2023-01-07T12:42:31.972Z,3.43
2023-01-07T12:43:31.964Z,4.28
2023-01-07T12:44:31.958Z,4.77
2023-01-07T12:45:32.022Z,3.43
2023-01-07T12:46:32.073Z,4.28
2023-01-07T12:47:35.101Z,3.43
2023-01-07T12:48:31.980Z,2.94
2023-01-07T12:49:32.010Z,2.94
2023-01-07T12:50:32.075Z,3.79
2023-01-07T12:51:31.989Z,2.94
2023-01-07T12:52:31.986Z,1.71
2023-01-07T12:53:31.987Z,2.57
2023-01-07T12:54:31.979Z,2.08
2023-01-07T12:55:32.007Z,1.71
2023-01-07T12:56:31.992Z,1.22
2023-01-07T12:57:32.041Z,1.22
2023-01-07T12:58:31.945Z,0.85
2023-01-07T12:59:47.284Z,0.36
2023-01-07T13:00:31.958Z,1.22
2023-01-07T13:01:32.068Z,1.22
2023-01-07T13:02:31.966Z,1.22
2023-01-07T13:03:32.029Z,1.71
2023-01-07T13:04:31.966Z,0.36
2023-01-07T13:05:31.967Z,0.36
2023-01-07T13:06:32.053Z,1.22
2023-01-07T13:07:32.022Z,0.36
2023-01-07T13:08:31.959Z,0.36
2023-01-07T13:09:31.983Z,0.85
2023-01-07T13:10:31.976Z,0.85
2023-01-07T13:11:31.972Z,0
2023-01-07T13:12:42.177Z,0
2023-01-07T13:13:32.003Z,0
2023-01-07T13:14:31.952Z,0.36
2023-01-07T13:15:31.964Z,0
2023-01-07T13:16:32.027Z,0.36
2023-01-07T13:17:31.985Z,0
2023-01-07T13:18:31.999Z,0
2023-01-07T13:19:32.000Z,0
2023-01-07T13:20:31.959Z,0
2023-01-07T13:21:32.612Z,0
2023-01-07T13:22:31.949Z,0
2023-01-07T13:23:32.014Z,0
2023-01-07T13:24:56.513Z,0
2023-01-07T13:25:32.060Z,0
2023-01-07T13:26:31.975Z,0
2023-01-07T13:27:32.024Z,0
2023-01-07T13:28:31.978Z,0
2023-01-07T13:29:32.004Z,0
2023-01-07T13:30:31.964Z,0
2023-01-07T13:31:32.038Z,0
2023-01-07T13:32:31.974Z,0
2023-01-07T13:33:31.999Z,0
2023-01-07T13:34:31.954Z,0
2023-01-07T13:35:32.060Z,0
2023-01-07T13:36:31.971Z,0
2023-01-07T13:37:31.973Z,0
2023-01-07T13:38:31.969Z,0
2023-01-07T13:39:31.990Z,0
2023-01-07T13:40:31.963Z,0
2023-01-07T13:41:32.131Z,0
2023-01-07T13:42:32.002Z,0
2023-01-07T13:43:31.928Z,0
2023-01-07T13:44:31.996Z,0
2023-01-07T13:45:32.036Z,0
2023-01-07T13:46:32.084Z,0
2023-01-07T13:47:31.942Z,0
2023-01-07T13:48:31.981Z,0
2023-01-07T13:49:31.964Z,0
2023-01-07T13:50:31.977Z,0
2023-01-07T13:51:32.012Z,0
2023-01-07T13:52:32.115Z,0
2023-01-07T13:53:31.991Z,0
2023-01-07T13:54:32.170Z,0
2023-01-07T13:55:31.963Z,0
2023-01-07T13:56:31.971Z,0
2023-01-07T13:57:32.032Z,0
2023-01-07T13:58:31.976Z,0
2023-01-07T13:59:31.957Z,0
2023-01-07T14:00:31.956Z,0
2023-01-07T14:01:32.043Z,0
2023-01-07T14:02:32.096Z,0
2023-01-07T14:03:31.972Z,0
2023-01-07T14:04:31.994Z,0
2023-01-07T14:05:31.969Z,0
2023-01-07T14:06:32.020Z,0
2023-01-07T14:07:31.961Z,0